Time;durP1;ratioP1;P1;durP2;ratioP2;P2;SDS_P1;SDS_P2;PMS_P1;PMS_P2;Temp;Humidity;BMP_temperature;BMP_pressure;BME280_temperature;BME280_humidity;BME280_pressure;Samples;Min_cycle;Max_cycle;Signal;HPM_P1;HPM_P2
2023/07/08 00:00:49;;;;;;;8.10;5.40;;;;;;;;;;6109706;23;20392;-90
2023/07/08 00:03:15;;;;;;;9.67;4.73;;;;;;;;;;6113073;23;20381;-90
2023/07/08 00:05:41;;;;;;;9.30;5.27;;;;;;;;;;6111697;23;20406;-90
2023/07/08 00:08:13;;;;;;;8.20;5.80;;;;;;;;;;6136545;23;20385;-89
2023/07/08 00:10:40;;;;;;;8.13;5.27;;;;;;;;;;6110966;23;20416;-90
2023/07/08 00:13:05;;;;;;;8.50;5.60;;;;;;;;;;6112476;23;20764;-90
2023/07/08 00:15:32;;;;;;;10.20;6.30;;;;;;;;;;6111872;23;20420;-89
2023/07/08 00:17:58;;;;;;;8.23;5.80;;;;;;;;;;6111387;23;20761;-89
2023/07/08 00:20:30;;;;;;;10.17;7.40;;;;;;;;;;6110967;23;20384;-89
2023/07/08 00:22:56;;;;;;;8.73;5.80;;;;;;;;;;6165496;23;20368;-88
2023/07/08 00:25:22;;;;;;;7.60;4.93;;;;;;;;;;6229061;23;20409;-90
2023/07/08 00:27:48;;;;;;;6.10;4.83;;;;;;;;;;6227612;23;20382;-91
2023/07/08 00:30:14;;;;;;;7.80;5.20;;;;;;;;;;6225877;23;20378;-89
2023/07/08 00:32:41;;;;;;;8.60;5.80;;;;;;;;;;6225739;23;20446;-89
2023/07/08 00:35:07;;;;;;;9.07;5.87;;;;;;;;;;6226397;23;20453;-89
2023/07/08 00:37:34;;;;;;;7.40;5.00;;;;;;;;;;6228444;23;20688;-90
2023/07/08 00:40:00;;;;;;;10.50;6.30;;;;;;;;;;6226595;23;20375;-87
2023/07/08 00:42:26;;;;;;;7.83;5.60;;;;;;;;;;6227404;23;20377;-88
2023/07/08 00:44:52;;;;;;;8.33;5.10;;;;;;;;;;6227942;23;20370;-88
2023/07/08 00:47:18;;;;;;;8.67;5.60;;;;;;;;;;6228342;23;20451;-88
2023/07/08 00:49:53;;;;;;;8.13;5.77;;;;;;;;;;6227636;23;20362;-88
2023/07/08 00:52:19;;;;;;;7.27;5.23;;;;;;;;;;6227843;23;20380;-88
2023/07/08 00:54:45;;;;;;;7.50;5.17;;;;;;;;;;6228457;23;20370;-88
2023/07/08 00:57:11;;;;;;;8.73;5.03;;;;;;;;;;6226689;23;20418;-89
2023/07/08 00:59:39;;;;;;;11.40;6.20;;;;;;;;;;6228151;23;20417;-89
2023/07/08 01:02:07;;;;;;;8.10;5.07;;;;;;;;;;6226333;23;20421;-89
2023/07/08 01:04:34;;;;;;;9.10;5.70;;;;;;;;;;6226871;23;20469;-91
2023/07/08 01:07:00;;;;;;;8.10;5.57;;;;;;;;;;6225255;23;20386;-89
2023/07/08 01:09:27;;;;;;;7.73;5.40;;;;;;;;;;6226771;23;20394;-88
2023/07/08 01:11:53;;;;;;;9.00;4.60;;;;;;;;;;6226760;23;20424;-88
2023/07/08 01:14:20;;;;;;;8.07;5.47;;;;;;;;;;6229940;23;20374;-89
2023/07/08 01:16:46;;;;;;;7.53;5.50;;;;;;;;;;6226737;23;20405;-88
2023/07/08 01:19:14;;;;;;;8.20;5.90;;;;;;;;;;6226928;23;20485;-89
2023/07/08 01:21:59;;;;;;;7.07;4.60;;;;;;;;;;6224894;23;20379;-89
2023/07/08 01:24:25;;;;;;;10.50;4.90;;;;;;;;;;6228781;23;20426;-88
2023/07/08 01:26:51;;;;;;;9.23;5.47;;;;;;;;;;6226030;23;20707;-88
2023/07/08 01:29:17;;;;;;;8.97;5.50;;;;;;;;;;6228041;23;20477;-87
2023/07/08 01:31:48;;;;;;;8.07;5.50;;;;;;;;;;6225826;23;20144;-88
2023/07/08 01:34:14;;;;;;;8.13;5.63;;;;;;;;;;6230236;23;20854;-89
2023/07/08 01:36:42;;;;;;;6.43;4.77;;;;;;;;;;6226800;23;20465;-89
2023/07/08 01:39:10;;;;;;;7.67;6.20;;;;;;;;;;6228217;23;20474;-89
2023/07/08 01:41:36;;;;;;;9.43;6.30;;;;;;;;;;6228230;23;20441;-89
2023/07/08 01:44:02;;;;;;;7.60;5.63;;;;;;;;;;6231086;23;20377;-90
2023/07/08 01:46:29;;;;;;;8.40;5.80;;;;;;;;;;6228020;23;20384;-89
2023/07/08 01:48:56;;;;;;;8.77;5.97;;;;;;;;;;6226237;23;20444;-89
2023/07/08 01:51:22;;;;;;;7.87;5.43;;;;;;;;;;6228215;23;20382;-89
2023/07/08 01:53:48;;;;;;;8.70;5.70;;;;;;;;;;6227829;23;20720;-90
2023/07/08 01:56:15;;;;;;;9.10;5.60;;;;;;;;;;6229395;23;20505;-89
2023/07/08 01:58:41;;;;;;;7.70;5.33;;;;;;;;;;6228443;23;20374;-90
2023/07/08 02:01:07;;;;;;;10.20;5.27;;;;;;;;;;6230353;23;20378;-88
2023/07/08 02:03:33;;;;;;;8.63;5.60;;;;;;;;;;6227551;23;20752;-90
2023/07/08 02:05:59;;;;;;;6.83;5.17;;;;;;;;;;6230815;23;20393;-90
2023/07/08 02:08:25;;;;;;;8.87;6.40;;;;;;;;;;6227449;23;20384;-90
2023/07/08 02:10:51;;;;;;;8.20;5.27;;;;;;;;;;6223649;23;20696;-90
2023/07/08 02:13:18;;;;;;;7.30;5.60;;;;;;;;;;6226651;23;20386;-89
2023/07/08 02:15:44;;;;;;;9.00;5.03;;;;;;;;;;6224907;23;20504;-89
2023/07/08 02:18:10;;;;;;;9.70;6.60;;;;;;;;;;6227692;23;20374;-89
2023/07/08 02:20:36;;;;;;;10.40;6.03;;;;;;;;;;6224230;23;20389;-88
2023/07/08 02:23:02;;;;;;;12.40;5.27;;;;;;;;;;6226113;23;20374;-90
2023/07/08 02:25:28;;;;;;;8.67;4.87;;;;;;;;;;6223534;23;20469;-90
2023/07/08 02:27:56;;;;;;;7.03;4.70;;;;;;;;;;6226289;23;20378;-90
2023/07/08 02:30:22;;;;;;;6.67;4.97;;;;;;;;;;6225872;23;20819;-90
2023/07/08 02:32:56;;;;;;;7.57;4.90;;;;;;;;;;6227128;23;20373;-90
2023/07/08 02:35:22;;;;;;;8.03;5.30;;;;;;;;;;6227037;23;20449;-89
2023/07/08 02:37:48;;;;;;;8.33;5.00;;;;;;;;;;6225992;23;20378;-90
2023/07/08 02:40:14;;;;;;;8.07;5.43;;;;;;;;;;6225296;23;20718;-90
2023/07/08 02:42:40;;;;;;;8.70;5.30;;;;;;;;;;6226862;23;20389;-89
2023/07/08 02:45:07;;;;;;;8.30;5.70;;;;;;;;;;6224119;23;20374;-89
2023/07/08 02:47:33;;;;;;;7.27;5.43;;;;;;;;;;6227801;23;20422;-89
2023/07/08 02:50:00;;;;;;;6.53;5.13;;;;;;;;;;6225754;23;20425;-91
2023/07/08 02:52:26;;;;;;;6.43;4.83;;;;;;;;;;6224834;23;20377;-91
2023/07/08 02:54:52;;;;;;;8.93;6.07;;;;;;;;;;6224769;23;20374;-90
2023/07/08 02:57:18;;;;;;;10.63;6.60;;;;;;;;;;6224960;23;20425;-91
2023/07/08 02:59:44;;;;;;;8.53;5.57;;;;;;;;;;6225391;23;20373;-91
2023/07/08 03:02:11;;;;;;;8.93;5.40;;;;;;;;;;6226141;23;20486;-90
2023/07/08 03:04:39;;;;;;;8.73;5.33;;;;;;;;;;6227013;23;20405;-91
2023/07/08 03:07:05;;;;;;;7.10;5.20;;;;;;;;;;6226179;23;20441;-89
2023/07/08 03:09:32;;;;;;;10.73;5.70;;;;;;;;;;6225259;23;20370;-90
2023/07/08 03:11:58;;;;;;;6.43;4.80;;;;;;;;;;6226389;23;20927;-91
2023/07/08 03:14:24;;;;;;;7.10;4.63;;;;;;;;;;6226191;23;20382;-91
2023/07/08 03:16:50;;;;;;;8.10;5.23;;;;;;;;;;6225419;23;20822;-91
2023/07/08 03:19:17;;;;;;;10.97;6.40;;;;;;;;;;6226265;23;20397;-91
2023/07/08 03:21:46;;;;;;;6.57;4.83;;;;;;;;;;6226425;23;20378;-93
2023/07/08 03:24:12;;;;;;;7.93;5.50;;;;;;;;;;6226368;23;20927;-92
2023/07/08 03:26:38;;;;;;;7.10;4.40;;;;;;;;;;6225891;23;20405;-92
2023/07/08 03:29:04;;;;;;;8.10;5.20;;;;;;;;;;6229442;23;20358;-92
2023/07/08 03:31:30;;;;;;;9.97;4.80;;;;;;;;;;6226157;23;20377;-92
2023/07/08 03:33:56;;;;;;;7.20;5.30;;;;;;;;;;6228483;23;20374;-91
2023/07/08 03:36:22;;;;;;;11.13;5.00;;;;;;;;;;6225872;23;20433;-90
2023/07/08 03:38:49;;;;;;;9.20;5.50;;;;;;;;;;6232061;23;20454;-90
2023/07/08 03:41:15;;;;;;;7.07;4.73;;;;;;;;;;6226443;23;20378;-90
2023/07/08 03:43:41;;;;;;;8.17;4.60;;;;;;;;;;6229701;23;20559;-90
2023/07/08 03:46:08;;;;;;;7.70;4.67;;;;;;;;;;6226073;23;20380;-90
2023/07/08 03:48:34;;;;;;;8.63;4.70;;;;;;;;;;6226723;23;20390;-91
2023/07/08 03:51:00;;;;;;;8.63;4.90;;;;;;;;;;6228015;23;20454;-91
2023/07/08 03:53:26;;;;;;;8.17;4.97;;;;;;;;;;6231165;23;20378;-90
2023/07/08 03:55:51;;;;;;;9.30;5.50;;;;;;;;;;6225590;23;20422;-90
2023/07/08 03:58:17;;;;;;;11.33;6.47;;;;;;;;;;6225997;23;20479;-90
2023/07/08 04:00:43;;;;;;;8.13;5.63;;;;;;;;;;6226563;23;20941;-90
2023/07/08 04:03:11;;;;;;;6.60;4.53;;;;;;;;;;6226289;23;20390;-92
2023/07/08 04:05:37;;;;;;;8.90;5.30;;;;;;;;;;6226622;23;20382;-90
2023/07/08 04:08:03;;;;;;;8.53;5.60;;;;;;;;;;6229028;23;20384;-90
2023/07/08 04:10:29;;;;;;;9.17;5.80;;;;;;;;;;6226773;23;20573;-90
2023/07/08 04:12:55;;;;;;;6.70;5.40;;;;;;;;;;6228747;23;20379;-91
2023/07/08 04:15:25;;;;;;;7.30;5.23;;;;;;;;;;6228508;23;20457;-91
2023/07/08 04:17:51;;;;;;;9.17;5.37;;;;;;;;;;6226926;23;20858;-91
2023/07/08 04:20:18;;;;;;;7.77;5.40;;;;;;;;;;6225428;23;20401;-90
2023/07/08 04:22:44;;;;;;;9.13;5.43;;;;;;;;;;6228396;23;20390;-91
2023/07/08 04:25:11;;;;;;;8.60;5.70;;;;;;;;;;6225968;23;20465;-90
2023/07/08 04:27:37;;;;;;;9.90;5.77;;;;;;;;;;6228626;23;20387;-90
2023/07/08 04:30:04;;;;;;;6.50;4.93;;;;;;;;;;6227219;23;20850;-91
2023/07/08 04:32:30;;;;;;;8.47;5.70;;;;;;;;;;6225401;23;20460;-90
2023/07/08 04:34:57;;;;;;;5.90;4.50;;;;;;;;;;6228410;23;20366;-90
2023/07/08 04:37:23;;;;;;;7.67;5.47;;;;;;;;;;6228077;23;20383;-91
2023/07/08 04:39:48;;;;;;;7.27;4.83;;;;;;;;;;6231144;23;20402;-91
2023/07/08 04:42:17;;;;;;;8.43;5.30;;;;;;;;;;6228289;23;20354;-91
2023/07/08 04:44:43;;;;;;;9.23;5.57;;;;;;;;;;6228231;23;20413;-90
2023/07/08 04:47:13;;;;;;;9.13;6.03;;;;;;;;;;6222670;23;20394;-91
2023/07/08 04:49:40;;;;;;;12.60;6.30;;;;;;;;;;6223630;23;20366;-91
2023/07/08 04:52:06;;;;;;;7.60;5.40;;;;;;;;;;6223329;23;20409;-91
2023/07/08 04:54:32;;;;;;;8.37;4.93;;;;;;;;;;6225007;23;20982;-91
2023/07/08 04:56:58;;;;;;;7.57;5.00;;;;;;;;;;6223876;23;20414;-91
2023/07/08 04:59:27;;;;;;;9.37;6.70;;;;;;;;;;6227218;23;20390;-90
2023/07/08 05:01:53;;;;;;;10.27;5.80;;;;;;;;;;6223876;23;20800;-90
2023/07/08 05:04:20;;;;;;;10.57;6.03;;;;;;;;;;6228102;23;20386;-91
2023/07/08 05:06:46;;;;;;;9.00;5.97;;;;;;;;;;6224275;23;20425;-91
2023/07/08 05:09:12;;;;;;;7.53;5.70;;;;;;;;;;6201709;23;20363;-91
2023/07/08 05:11:38;;;;;;;10.30;5.77;;;;;;;;;;6225340;23;20394;-91
2023/07/08 05:14:04;;;;;;;10.63;6.23;;;;;;;;;;6226719;23;20385;-91
2023/07/08 05:16:30;;;;;;;8.33;6.77;;;;;;;;;;6225488;23;20422;-91
2023/07/08 05:18:56;;;;;;;8.87;5.77;;;;;;;;;;6226042;23;20445;-91
2023/07/08 05:21:22;;;;;;;11.40;6.47;;;;;;;;;;6225815;23;20378;-91
2023/07/08 05:23:49;;;;;;;8.70;6.50;;;;;;;;;;6225956;23;20383;-91
2023/07/08 05:26:20;;;;;;;9.57;5.97;;;;;;;;;;6227048;23;20396;-92
2023/07/08 05:28:46;;;;;;;10.30;5.83;;;;;;;;;;6224683;23;20366;-91
2023/07/08 05:31:12;;;;;;;9.10;6.07;;;;;;;;;;6225620;23;20417;-91
2023/07/08 05:33:38;;;;;;;7.67;5.57;;;;;;;;;;6222941;23;20444;-91
2023/07/08 05:36:04;;;;;;;8.30;5.07;;;;;;;;;;6221339;23;20417;-93
2023/07/08 05:38:35;;;;;;;9.50;5.70;;;;;;;;;;6221928;23;20379;-91
2023/07/08 05:41:01;;;;;;;8.43;5.70;;;;;;;;;;6223750;23;20377;-92
2023/07/08 05:43:27;;;;;;;7.97;5.33;;;;;;;;;;6221912;23;20385;-91
2023/07/08 05:45:58;;;;;;;9.33;6.30;;;;;;;;;;6224108;23;20439;-91
2023/07/08 05:48:24;;;;;;;9.60;5.53;;;;;;;;;;6223180;23;20935;-90
2023/07/08 05:50:53;;;;;;;8.83;6.23;;;;;;;;;;6222430;23;20362;-91
2023/07/08 05:53:20;;;;;;;10.20;6.17;;;;;;;;;;6222402;23;20414;-92
2023/07/08 05:55:46;;;;;;;9.77;5.83;;;;;;;;;;6224639;23;20965;-90
2023/07/08 05:58:15;;;;;;;14.27;6.87;;;;;;;;;;6222296;23;20410;-92
2023/07/08 06:00:44;;;;;;;9.50;6.43;;;;;;;;;;6225845;23;20375;-92
2023/07/08 06:03:11;;;;;;;10.83;7.07;;;;;;;;;;6222395;23;20394;-90
2023/07/08 06:05:37;;;;;;;8.37;6.23;;;;;;;;;;6226451;23;20379;-90
2023/07/08 06:08:03;;;;;;;7.77;5.40;;;;;;;;;;6224787;23;20419;-90
2023/07/08 06:10:29;;;;;;;8.67;5.77;;;;;;;;;;6225128;23;20359;-90
2023/07/08 06:12:55;;;;;;;8.43;5.83;;;;;;;;;;6223452;23;20389;-90
2023/07/08 06:15:21;;;;;;;9.17;6.27;;;;;;;;;;6225801;23;20464;-90
2023/07/08 06:17:47;;;;;;;10.77;6.33;;;;;;;;;;6223419;23;20374;-90
2023/07/08 06:20:13;;;;;;;10.23;6.00;;;;;;;;;;6226076;23;20415;-90
2023/07/08 06:22:39;;;;;;;7.13;5.40;;;;;;;;;;6224276;23;20429;-91
2023/07/08 06:25:05;;;;;;;8.50;5.47;;;;;;;;;;6227990;23;20370;-90
2023/07/08 06:27:31;;;;;;;7.73;5.70;;;;;;;;;;6223811;23;20386;-91
2023/07/08 06:29:57;;;;;;;9.00;6.20;;;;;;;;;;6223386;23;20374;-93
2023/07/08 06:32:23;;;;;;;7.30;5.63;;;;;;;;;;6222957;23;20709;-90
2023/07/08 06:34:49;;;;;;;7.13;5.10;;;;;;;;;;6228621;23;20381;-91
2023/07/08 06:37:15;;;;;;;7.20;5.07;;;;;;;;;;6223936;23;20429;-92
2023/07/08 06:39:40;;;;;;;6.97;4.97;;;;;;;;;;6226217;23;20394;-91
2023/07/08 06:42:07;;;;;;;7.20;4.90;;;;;;;;;;6218388;23;20383;-89
2023/07/08 06:44:32;;;;;;;8.80;4.97;;;;;;;;;;6193017;23;20863;-91
2023/07/08 06:46:58;;;;;;;5.70;4.03;;;;;;;;;;6196922;23;20464;-91
2023/07/08 06:49:24;;;;;;;8.17;4.67;;;;;;;;;;6194554;23;20387;-92
2023/07/08 06:51:51;;;;;;;7.47;3.80;;;;;;;;;;6195138;23;20947;-93
2023/07/08 06:54:17;;;;;;;7.77;5.23;;;;;;;;;;6194016;23;20402;-92
2023/07/08 06:56:43;;;;;;;6.53;3.90;;;;;;;;;;6194147;23;20525;-92
2023/07/08 06:59:09;;;;;;;8.20;4.10;;;;;;;;;;6193260;23;20379;-92
2023/07/08 07:01:36;;;;;;;6.63;4.53;;;;;;;;;;6194462;23;20375;-91
2023/07/08 07:04:03;;;;;;;9.03;4.97;;;;;;;;;;6194078;23;20383;-91
2023/07/08 07:06:29;;;;;;;6.43;4.47;;;;;;;;;;6196294;23;20398;-92
2023/07/08 07:08:55;;;;;;;6.50;4.10;;;;;;;;;;6194084;23;20383;-91
2023/07/08 07:11:21;;;;;;;7.27;4.73;;;;;;;;;;6202179;23;20374;-92
2023/07/08 07:16:23;;;;;;;7.07;5.17;;;;;;;;;;6281692;22;20447;-93
2023/07/08 07:18:51;;;;;;;5.53;4.07;;;;;;;;;;6231837;22;20388;-91
2023/07/08 07:21:17;;;;;;;6.03;4.13;;;;;;;;;;6232598;22;20385;-90
2023/07/08 07:23:43;;;;;;;6.93;4.20;;;;;;;;;;6231189;22;20450;-92
2023/07/08 07:26:10;;;;;;;6.10;4.20;;;;;;;;;;6232849;22;20382;-90
2023/07/08 07:28:36;;;;;;;6.70;4.63;;;;;;;;;;6232042;22;20377;-91
2023/07/08 07:31:02;;;;;;;9.03;4.60;;;;;;;;;;6230496;22;20408;-91
2023/07/08 07:33:28;;;;;;;6.30;3.97;;;;;;;;;;6232889;22;20385;-91
2023/07/08 07:35:54;;;;;;;4.77;4.10;;;;;;;;;;6232326;22;20441;-91
2023/07/08 07:38:20;;;;;;;6.00;4.40;;;;;;;;;;6197198;23;20513;-91
2023/07/08 07:40:46;;;;;;;7.43;4.47;;;;;;;;;;6168538;23;20414;-91
2023/07/08 07:43:12;;;;;;;5.77;4.60;;;;;;;;;;6170248;23;20502;-90
2023/07/08 07:45:38;;;;;;;6.50;4.47;;;;;;;;;;6169294;23;20411;-91
2023/07/08 07:48:04;;;;;;;5.67;4.60;;;;;;;;;;6168501;23;20478;-92
2023/07/08 07:50:31;;;;;;;7.13;3.93;;;;;;;;;;6169156;23;20367;-92
2023/07/08 07:52:57;;;;;;;6.23;3.77;;;;;;;;;;6175256;23;20470;-93
2023/07/08 07:55:23;;;;;;;5.83;4.00;;;;;;;;;;6168885;23;20390;-92
2023/07/08 07:57:49;;;;;;;7.87;4.90;;;;;;;;;;6193980;23;20447;-92
2023/07/08 08:00:15;;;;;;;4.50;3.80;;;;;;;;;;6169938;23;20379;-91
2023/07/08 08:02:41;;;;;;;7.87;4.13;;;;;;;;;;6170667;23;20379;-90
2023/07/08 08:05:07;;;;;;;5.77;3.70;;;;;;;;;;6164347;23;20379;-88
2023/07/08 08:07:33;;;;;;;6.10;4.70;;;;;;;;;;6172765;23;20417;-89
2023/07/08 08:09:59;;;;;;;6.33;4.03;;;;;;;;;;6215063;22;20374;-89
2023/07/08 08:12:25;;;;;;;6.57;3.27;;;;;;;;;;6231048;22;20377;-90
2023/07/08 08:14:51;;;;;;;5.20;3.30;;;;;;;;;;6233255;22;20404;-89
2023/07/08 08:17:17;;;;;;;4.77;3.07;;;;;;;;;;6229668;22;20463;-89
2023/07/08 08:19:43;;;;;;;5.13;3.23;;;;;;;;;;6228176;22;20369;-89
2023/07/08 08:22:09;;;;;;;6.13;3.43;;;;;;;;;;6229731;22;20441;-90
2023/07/08 08:24:35;;;;;;;4.77;3.20;;;;;;;;;;6227553;22;20369;-89
2023/07/08 08:27:01;;;;;;;5.57;3.00;;;;;;;;;;6234228;22;20438;-91
2023/07/08 08:29:27;;;;;;;5.77;3.10;;;;;;;;;;6254338;22;20374;-90
2023/07/08 08:31:54;;;;;;;7.57;3.07;;;;;;;;;;6255122;22;20860;-90
2023/07/08 08:34:20;;;;;;;5.90;3.33;;;;;;;;;;6255652;22;21015;-90
2023/07/08 08:36:46;;;;;;;4.73;2.50;;;;;;;;;;6229159;22;20992;-91
2023/07/08 08:39:13;;;;;;;4.13;2.90;;;;;;;;;;6258251;22;20369;-90
2023/07/08 08:41:39;;;;;;;7.67;3.07;;;;;;;;;;6228597;22;20369;-90
2023/07/08 08:44:06;;;;;;;3.87;2.90;;;;;;;;;;6227358;22;20852;-91
2023/07/08 08:46:51;;;;;;;4.20;2.70;;;;;;;;;;6230695;22;20444;-90
2023/07/08 08:49:29;;;;;;;6.40;3.30;;;;;;;;;;6254268;22;20365;-91
2023/07/08 08:51:55;;;;;;;4.50;2.50;;;;;;;;;;6253925;22;20369;-90
2023/07/08 08:54:21;;;;;;;5.07;2.90;;;;;;;;;;6228400;22;20459;-90
2023/07/08 08:57:01;;;;;;;8.40;3.10;;;;;;;;;;6221946;23;20441;-90
2023/07/08 08:59:30;;;;;;;3.40;2.60;;;;;;;;;;6222018;23;20438;-91
2023/07/08 09:01:56;;;;;;;4.83;2.50;;;;;;;;;;6248507;23;20422;-90
2023/07/08 09:04:24;;;;;;;5.00;2.37;;;;;;;;;;6199688;23;20382;-90
2023/07/08 09:06:50;;;;;;;3.93;2.40;;;;;;;;;;6220234;23;20378;-90
2023/07/08 09:09:19;;;;;;;5.50;2.30;;;;;;;;;;6196954;23;20519;-91
2023/07/08 09:11:53;;;;;;;6.33;2.57;;;;;;;;;;6197246;23;20395;-90
2023/07/08 09:14:26;;;;;;;3.87;2.00;;;;;;;;;;6200983;23;20384;-91
2023/07/08 09:16:58;;;;;;;5.03;2.20;;;;;;;;;;6196440;23;20441;-90
2023/07/08 09:19:24;;;;;;;3.60;1.90;;;;;;;;;;6221780;23;20378;-90
2023/07/08 09:21:56;;;;;;;6.07;2.60;;;;;;;;;;6221736;23;20379;-89
2023/07/08 09:24:33;;;;;;;3.50;2.63;;;;;;;;;;6222760;23;20381;-89
2023/07/08 09:27:00;;;;;;;3.83;2.77;;;;;;;;;;6202929;22;20389;-89
2023/07/08 09:29:26;;;;;;;4.70;1.97;;;;;;;;;;6230115;22;20373;-90
2023/07/08 09:35:19;;;;;;;3.97;2.40;;;;;;;;;;6108216;23;20433;-90
2023/07/08 09:38:14;;;;;;;3.67;2.53;;;;;;;;;;6079237;23;20845;-90
2023/07/08 09:41:20;;;;;;;4.40;2.53;;;;;;;;;;6099826;23;20378;-90
2023/07/08 09:44:25;;;;;;;;;;;;;;;;;;;;;
2023/07/08 09:47:13;;;;;;;3.17;1.90;;;;;;;;;;6129325;23;20887;-91
2023/07/08 09:49:47;;;;;;;4.93;3.00;;;;;;;;;;6101855;23;20378;-90
2023/07/08 09:52:40;;;;;;;5.00;2.60;;;;;;;;;;6077679;23;20963;-90
2023/07/08 09:55:18;;;;;;;6.40;3.00;;;;;;;;;;6063701;23;20664;-90
2023/07/08 09:58:12;;;;;;;3.57;2.10;;;;;;;;;;6032439;23;21254;-90
2023/07/08 10:00:43;;;;;;;3.10;2.20;;;;;;;;;;6038843;23;20774;-92
2023/07/08 10:03:17;;;;;;;3.63;2.33;;;;;;;;;;6015644;23;20368;-90
2023/07/08 10:06:02;;;;;;;;;;;;;;;;;;;;;
2023/07/08 10:08:31;;;;;;;5.80;3.23;;;;;;;;;;6165010;23;20494;-89
2023/07/08 10:11:26;;;;;;;5.67;3.03;;;;;;;;;;6139146;23;20442;-90
2023/07/08 10:13:53;;;;;;;4.83;3.40;;;;;;;;;;6146283;23;20384;-90
2023/07/08 10:16:26;;;;;;;3.90;2.63;;;;;;;;;;6141475;23;20435;-88
2023/07/08 10:18:52;;;;;;;4.20;3.07;;;;;;;;;;6138465;23;20399;-90
2023/07/08 10:21:21;;;;;;;5.33;3.33;;;;;;;;;;6139240;23;20371;-90
2023/07/08 10:23:51;;;;;;;4.63;2.83;;;;;;;;;;6161585;23;20767;-90
2023/07/08 10:26:30;;;;;;;5.63;3.40;;;;;;;;;;6134688;23;20770;-91
2023/07/08 10:28:56;;;;;;;5.27;3.03;;;;;;;;;;6154451;23;20543;-93
2023/07/08 10:31:25;;;;;;;7.30;3.43;;;;;;;;;;6206833;22;20492;-92
2023/07/08 10:34:18;;;;;;;5.33;3.37;;;;;;;;;;6279085;22;20154;-92
2023/07/08 10:36:53;;;;;;;5.77;3.70;;;;;;;;;;6251860;22;20448;-92
2023/07/08 10:39:28;;;;;;;4.80;3.93;;;;;;;;;;6282890;22;20357;-89
2023/07/08 10:42:00;;;;;;;7.83;5.10;;;;;;;;;;6233701;22;20409;-91
2023/07/08 10:44:38;;;;;;;7.50;4.73;;;;;;;;;;6253832;22;20431;-90
2023/07/08 10:47:13;;;;;;;5.23;3.80;;;;;;;;;;6234022;22;20376;-90
2023/07/08 10:49:48;;;;;;;5.97;4.07;;;;;;;;;;6256333;22;20387;-90
2023/07/08 10:52:17;;;;;;;5.80;3.60;;;;;;;;;;6254106;22;20380;-90
2023/07/08 10:55:16;;;;;;;5.63;4.03;;;;;;;;;;6286544;22;20356;-90
2023/07/08 10:57:48;;;;;;;7.53;4.30;;;;;;;;;;6210282;22;20400;-90
2023/07/08 11:00:33;;;;;;;5.07;3.10;;;;;;;;;;6281083;22;20445;-89
2023/07/08 11:03:02;;;;;;;4.07;2.57;;;;;;;;;;6257528;22;20468;-89
2023/07/08 11:05:45;;;;;;;4.57;3.10;;;;;;;;;;6255324;22;20377;-87
2023/07/08 11:08:27;;;;;;;7.00;4.57;;;;;;;;;;6234709;22;20364;-90
2023/07/08 11:11:09;;;;;;;4.90;3.20;;;;;;;;;;6257915;22;20376;-88
2023/07/08 11:13:37;;;;;;;5.97;4.20;;;;;;;;;;6231745;22;20845;-88
2023/07/08 11:16:15;;;;;;;4.47;3.57;;;;;;;;;;6231307;22;20422;-88
2023/07/08 11:18:50;;;;;;;4.17;2.33;;;;;;;;;;6283400;22;20346;-89
2023/07/08 11:21:18;;;;;;;4.67;3.00;;;;;;;;;;6257464;22;20409;-88
2023/07/08 11:23:56;;;;;;;5.47;3.13;;;;;;;;;;6231212;22;20381;-88
2023/07/08 11:26:31;;;;;;;4.87;3.57;;;;;;;;;;6233496;22;20403;-89
2023/07/08 11:28:57;;;;;;;4.40;3.50;;;;;;;;;;6231684;22;20741;-90
2023/07/08 11:31:23;;;;;;;4.23;2.60;;;;;;;;;;6233117;22;20381;-91
2023/07/08 11:33:49;;;;;;;6.23;3.90;;;;;;;;;;6257280;22;20365;-90
2023/07/08 11:36:15;;;;;;;5.17;3.10;;;;;;;;;;6237338;22;20427;-90
2023/07/08 11:38:51;;;;;;;6.43;2.80;;;;;;;;;;6233660;22;20428;-90
2023/07/08 11:41:18;;;;;;;4.40;2.73;;;;;;;;;;6261504;22;20371;-88
2023/07/08 11:44:07;;;;;;;5.20;2.93;;;;;;;;;;6193721;23;20469;-89
2023/07/08 11:46:34;;;;;;;4.30;3.30;;;;;;;;;;6179104;23;20371;-89
2023/07/08 11:49:04;;;;;;;4.40;3.03;;;;;;;;;;6191799;23;20378;-89
2023/07/08 11:51:32;;;;;;;3.93;3.07;;;;;;;;;;6192464;23;20406;-89
2023/07/08 11:54:01;;;;;;;3.80;3.00;;;;;;;;;;6191842;23;20443;-88
2023/07/08 11:56:27;;;;;;;6.50;2.77;;;;;;;;;;6197290;23;20494;-88
2023/07/08 11:59:13;;;;;;;5.53;3.17;;;;;;;;;;6190495;23;20395;-88
2023/07/08 12:01:52;;;;;;;4.70;3.20;;;;;;;;;;6198342;23;20402;-89
2023/07/08 12:04:27;;;;;;;4.20;3.13;;;;;;;;;;6192179;23;20466;-90
2023/07/08 12:07:07;;;;;;;4.33;2.93;;;;;;;;;;6195029;23;20373;-89
2023/07/08 12:09:45;;;;;;;5.03;3.50;;;;;;;;;;6194934;23;20427;-89
2023/07/08 12:12:21;;;;;;;5.27;2.93;;;;;;;;;;6195048;23;20396;-89
2023/07/08 12:14:47;;;;;;;4.20;3.40;;;;;;;;;;6243325;22;20357;-89
2023/07/08 12:17:13;;;;;;;4.50;3.20;;;;;;;;;;6225184;22;20421;-90
2023/07/08 12:19:41;;;;;;;4.50;3.03;;;;;;;;;;6229065;22;20206;-88
2023/07/08 12:22:14;;;;;;;3.57;2.70;;;;;;;;;;6226636;22;20555;-89
2023/07/08 12:24:41;;;;;;;5.50;3.27;;;;;;;;;;6229941;22;20373;-89
2023/07/08 12:27:08;;;;;;;3.17;2.60;;;;;;;;;;6226212;22;20389;-87
2023/07/08 12:29:34;;;;;;;5.53;3.17;;;;;;;;;;6229346;22;20892;-89
2023/07/08 12:32:00;;;;;;;5.30;2.90;;;;;;;;;;6226988;22;20385;-87
2023/07/08 12:34:26;;;;;;;4.10;3.20;;;;;;;;;;6230424;22;20378;-88
2023/07/08 12:36:52;;;;;;;6.23;3.10;;;;;;;;;;6228042;22;20413;-89
2023/07/08 12:39:19;;;;;;;5.37;3.27;;;;;;;;;;6228925;22;20385;-88
2023/07/08 12:41:45;;;;;;;4.63;2.47;;;;;;;;;;6228777;22;20385;-89
2023/07/08 12:44:18;;;;;;;4.07;3.13;;;;;;;;;;6256329;22;20362;-89
2023/07/08 12:46:45;;;;;;;5.37;3.40;;;;;;;;;;6230782;22;20481;-90
2023/07/08 12:49:11;;;;;;;4.10;2.80;;;;;;;;;;6254289;22;20377;-90
2023/07/08 12:51:37;;;;;;;3.90;2.73;;;;;;;;;;6255781;22;20386;-90
2023/07/08 12:54:03;;;;;;;4.30;3.20;;;;;;;;;;6226793;22;20712;-89
2023/07/08 12:56:29;;;;;;;3.53;3.10;;;;;;;;;;6226611;22;20416;-88
2023/07/08 12:58:56;;;;;;;4.73;3.30;;;;;;;;;;6225196;22;20382;-89
2023/07/08 13:01:25;;;;;;;3.67;3.20;;;;;;;;;;6229908;22;20381;-88
2023/07/08 13:03:53;;;;;;;4.20;2.60;;;;;;;;;;6224885;22;20437;-89
2023/07/08 13:06:20;;;;;;;4.40;3.00;;;;;;;;;;6229394;22;20392;-88
2023/07/08 13:08:46;;;;;;;4.10;2.63;;;;;;;;;;6224119;22;20389;-91
2023/07/08 13:11:14;;;;;;;4.20;3.80;;;;;;;;;;6230841;22;20385;-89
2023/07/08 13:13:41;;;;;;;4.40;2.90;;;;;;;;;;6250148;22;20437;-89
2023/07/08 13:16:08;;;;;;;5.30;2.73;;;;;;;;;;6228187;22;20417;-88
2023/07/08 13:18:34;;;;;;;3.73;2.40;;;;;;;;;;6223323;22;20413;-87
2023/07/08 13:21:00;;;;;;;5.03;3.13;;;;;;;;;;6230927;22;20420;-90
2023/07/08 13:23:27;;;;;;;5.27;2.70;;;;;;;;;;6227675;22;20385;-89
2023/07/08 13:25:53;;;;;;;5.50;2.80;;;;;;;;;;6230249;22;21126;-91
2023/07/08 13:28:36;;;;;;;4.67;2.33;;;;;;;;;;6224825;22;20970;-90
2023/07/08 13:31:02;;;;;;;3.47;2.37;;;;;;;;;;6228639;22;20366;-89
2023/07/08 13:33:32;;;;;;;3.50;2.60;;;;;;;;;;6227768;22;20380;-89
2023/07/08 13:35:58;;;;;;;3.53;3.17;;;;;;;;;;6231983;22;20413;-90
2023/07/08 13:38:25;;;;;;;4.57;2.63;;;;;;;;;;6252300;22;20793;-90
2023/07/08 13:40:58;;;;;;;4.80;2.83;;;;;;;;;;6226793;22;20408;-90
2023/07/08 13:43:24;;;;;;;3.07;2.10;;;;;;;;;;6227899;22;20382;-90
2023/07/08 13:45:50;;;;;;;3.77;2.97;;;;;;;;;;6226640;22;20424;-88
2023/07/08 13:48:30;;;;;;;3.30;2.70;;;;;;;;;;6229148;22;20657;-88
2023/07/08 13:50:56;;;;;;;6.67;2.97;;;;;;;;;;6229454;22;20698;-88
2023/07/08 13:53:27;;;;;;;4.70;2.50;;;;;;;;;;6255284;22;20529;-88
2023/07/08 13:55:59;;;;;;;4.13;2.13;;;;;;;;;;6232208;22;20417;-87
2023/07/08 13:58:27;;;;;;;3.63;2.33;;;;;;;;;;6228644;22;20385;-87
2023/07/08 14:00:54;;;;;;;4.83;2.30;;;;;;;;;;6226845;22;20421;-89
2023/07/08 14:03:20;;;;;;;4.30;2.43;;;;;;;;;;6229231;22;20466;-88
2023/07/08 14:05:46;;;;;;;4.00;2.50;;;;;;;;;;6253190;22;20383;-89
2023/07/08 14:08:13;;;;;;;3.83;2.47;;;;;;;;;;6231392;22;20228;-89
2023/07/08 14:10:39;;;;;;;5.00;3.00;;;;;;;;;;6226519;22;20381;-88
2023/07/08 14:13:05;;;;;;;3.50;2.40;;;;;;;;;;6228035;22;20385;-88
2023/07/08 14:15:32;;;;;;;3.40;2.60;;;;;;;;;;6225551;22;20353;-88
2023/07/08 14:17:58;;;;;;;3.03;2.43;;;;;;;;;;6227371;22;20845;-87
2023/07/08 14:20:25;;;;;;;2.70;2.13;;;;;;;;;;6226102;22;20381;-88
2023/07/08 14:22:52;;;;;;;3.37;2.90;;;;;;;;;;6225419;22;20470;-88
2023/07/08 14:25:20;;;;;;;4.70;2.87;;;;;;;;;;6224700;22;20382;-87
2023/07/08 14:27:46;;;;;;;2.60;1.90;;;;;;;;;;6229262;22;20381;-88
2023/07/08 14:30:13;;;;;;;3.40;2.43;;;;;;;;;;6229137;22;20423;-88
2023/07/08 14:32:39;;;;;;;3.60;2.60;;;;;;;;;;6226000;22;21235;-88
2023/07/08 14:35:16;;;;;;;3.67;2.40;;;;;;;;;;6225973;22;20377;-88
2023/07/08 14:37:42;;;;;;;4.43;2.40;;;;;;;;;;6226953;22;20424;-88
2023/07/08 14:40:30;;;;;;;5.30;2.90;;;;;;;;;;6228427;22;20381;-88
2023/07/08 14:42:58;;;;;;;3.47;2.27;;;;;;;;;;6226487;22;20378;-89
2023/07/08 14:45:25;;;;;;;4.63;2.80;;;;;;;;;;6225483;22;20454;-88
2023/07/08 14:47:51;;;;;;;5.63;2.70;;;;;;;;;;6226527;22;20385;-88
2023/07/08 14:50:17;;;;;;;3.67;2.30;;;;;;;;;;6226260;22;20805;-88
2023/07/08 14:52:43;;;;;;;2.90;2.27;;;;;;;;;;6252452;22;20381;-89
2023/07/08 14:55:09;;;;;;;6.20;2.57;;;;;;;;;;6228279;22;20404;-88
2023/07/08 14:57:40;;;;;;;5.20;2.50;;;;;;;;;;6230543;22;20421;-88